Time;durP1;ratioP1;P1;durP2;ratioP2;P2;SDS_P1;SDS_P2;PMS_P1;PMS_P2;Temp;Humidity;BMP_temperature;BMP_pressure;BME280_temperature;BME280_humidity;BME280_pressure;Samples;Min_cycle;Max_cycle;Signal;HPM_P1;HPM_P2
2023/12/11 00:01:22;;;;;;;10.88;3.58;;;;;;;;;;5063735;28;21050;-69
2023/12/11 00:03:49;;;;;;;11.15;3.10;;;;;;;;;;5053560;28;20013;-69
2023/12/11 00:06:15;;;;;;;7.75;3.03;;;;;;;;;;5059466;28;20028;-67
2023/12/11 00:08:41;;;;;;;7.45;3.10;;;;;;;;;;5061721;28;20637;-68
2023/12/11 00:11:09;;;;;;;11.00;2.90;;;;;;;;;;5057408;28;20534;-68
2023/12/11 00:13:35;;;;;;;5.82;3.20;;;;;;;;;;5059488;28;20023;-68
2023/12/11 00:16:01;;;;;;;14.32;3.58;;;;;;;;;;5065823;28;20028;-69
2023/12/11 00:18:27;;;;;;;13.35;3.78;;;;;;;;;;5056680;28;20029;-69
2023/12/11 00:20:54;;;;;;;8.30;3.35;;;;;;;;;;5059764;28;20036;-68
2023/12/11 00:23:20;;;;;;;10.38;3.03;;;;;;;;;;5053891;28;20028;-68
2023/12/11 00:25:49;;;;;;;8.10;2.90;;;;;;;;;;5056934;28;20021;-68
2023/12/11 00:28:17;;;;;;;6.07;2.80;;;;;;;;;;5073357;28;20384;-68
2023/12/11 00:30:43;;;;;;;8.73;3.53;;;;;;;;;;5072863;28;20060;-68
2023/12/11 00:33:09;;;;;;;5.20;3.15;;;;;;;;;;5092796;28;20026;-70
2023/12/11 00:35:36;;;;;;;7.70;3.78;;;;;;;;;;5050843;28;20033;-68
2023/12/11 00:38:02;;;;;;;7.72;2.80;;;;;;;;;;5069011;28;20021;-69
2023/12/11 00:40:28;;;;;;;10.27;3.92;;;;;;;;;;5057267;28;20036;-68
2023/12/11 00:42:54;;;;;;;9.88;3.72;;;;;;;;;;5068336;28;20025;-70
2023/12/11 00:45:21;;;;;;;12.00;3.28;;;;;;;;;;5060041;28;20040;-69
2023/12/11 00:47:47;;;;;;;9.73;3.08;;;;;;;;;;5061170;28;20044;-68
2023/12/11 00:50:13;;;;;;;7.20;2.95;;;;;;;;;;5062704;28;20043;-69
2023/12/11 00:52:39;;;;;;;9.35;2.40;;;;;;;;;;5059048;28;21066;-69
2023/12/11 00:55:05;;;;;;;6.50;2.40;;;;;;;;;;5075685;28;20047;-68
2023/12/11 00:57:32;;;;;;;8.85;3.15;;;;;;;;;;5059820;28;20476;-68
2023/12/11 00:59:58;;;;;;;5.53;2.33;;;;;;;;;;5058650;28;20396;-68
2023/12/11 01:02:24;;;;;;;6.25;2.25;;;;;;;;;;5062054;28;20021;-69
2023/12/11 01:04:50;;;;;;;9.32;2.67;;;;;;;;;;5049311;28;20032;-68
2023/12/11 01:07:16;;;;;;;5.35;2.20;;;;;;;;;;5059862;28;20067;-68
2023/12/11 01:09:42;;;;;;;2.83;1.88;;;;;;;;;;5052172;28;20029;-69
2023/12/11 01:12:08;;;;;;;6.47;2.55;;;;;;;;;;5050329;28;20029;-68
2023/12/11 01:14:35;;;;;;;8.70;2.63;;;;;;;;;;5057818;28;20092;-69
2023/12/11 01:17:01;;;;;;;5.78;2.75;;;;;;;;;;5053594;28;20529;-69
2023/12/11 01:19:27;;;;;;;8.52;2.58;;;;;;;;;;5055829;28;20075;-68
2023/12/11 01:21:53;;;;;;;5.68;2.58;;;;;;;;;;5058710;28;20558;-69
2023/12/11 01:24:19;;;;;;;5.00;2.58;;;;;;;;;;5052442;28;20021;-68
2023/12/11 01:26:45;;;;;;;6.50;2.40;;;;;;;;;;5063740;28;20108;-68
2023/12/11 01:29:12;;;;;;;5.10;2.45;;;;;;;;;;5055664;28;20043;-68
2023/12/11 01:31:38;;;;;;;4.22;2.20;;;;;;;;;;5061304;28;20040;-68
2023/12/11 01:34:07;;;;;;;12.10;2.72;;;;;;;;;;5055578;28;20388;-69
2023/12/11 01:36:33;;;;;;;5.88;2.58;;;;;;;;;;5065021;28;20036;-68
2023/12/11 01:38:59;;;;;;;4.55;2.63;;;;;;;;;;5063494;28;20093;-69
2023/12/11 01:41:25;;;;;;;3.53;2.30;;;;;;;;;;5081433;28;20028;-68
2023/12/11 01:43:56;;;;;;;5.97;2.58;;;;;;;;;;5062223;28;20035;-68
2023/12/11 01:46:23;;;;;;;4.72;2.47;;;;;;;;;;5062196;28;20143;-68
2023/12/11 01:48:50;;;;;;;4.45;2.42;;;;;;;;;;5067468;28;20092;-68
2023/12/11 01:51:17;;;;;;;3.38;2.25;;;;;;;;;;5063627;28;20030;-68
2023/12/11 01:53:48;;;;;;;7.18;2.58;;;;;;;;;;5061753;28;20566;-68
2023/12/11 01:56:14;;;;;;;8.65;2.38;;;;;;;;;;5054327;28;20545;-68
2023/12/11 01:58:40;;;;;;;7.65;2.40;;;;;;;;;;5055499;28;20173;-68
2023/12/11 02:01:08;;;;;;;5.07;2.53;;;;;;;;;;5054704;28;20074;-68
2023/12/11 02:03:34;;;;;;;5.70;2.42;;;;;;;;;;5065497;28;20032;-68
2023/12/11 02:06:01;;;;;;;5.45;1.92;;;;;;;;;;5063403;28;20052;-68
2023/12/11 02:08:27;;;;;;;6.72;2.08;;;;;;;;;;5065126;28;20024;-68
2023/12/11 02:10:53;;;;;;;5.32;2.28;;;;;;;;;;5062729;28;20528;-68
2023/12/11 02:13:21;;;;;;;4.13;2.00;;;;;;;;;;5061836;28;20085;-68
2023/12/11 02:15:47;;;;;;;5.53;1.85;;;;;;;;;;5077833;28;20028;-68
2023/12/11 02:18:18;;;;;;;7.93;2.33;;;;;;;;;;5058919;28;20443;-68
2023/12/11 02:20:45;;;;;;;2.00;1.80;;;;;;;;;;5059669;28;20047;-68
2023/12/11 02:23:14;;;;;;;7.60;2.00;;;;;;;;;;5062402;28;20021;-68
2023/12/11 02:25:41;;;;;;;6.00;1.90;;;;;;;;;;5065072;28;20392;-68
2023/12/11 02:28:07;;;;;;;6.13;1.95;;;;;;;;;;5057400;28;20024;-68
2023/12/11 02:30:37;;;;;;;6.82;2.50;;;;;;;;;;5066480;28;20081;-68
2023/12/11 02:33:03;;;;;;;3.40;1.83;;;;;;;;;;5063339;28;20468;-70
2023/12/11 02:35:30;;;;;;;4.20;1.95;;;;;;;;;;5063349;28;20051;-69
2023/12/11 02:37:56;;;;;;;5.53;2.72;;;;;;;;;;5064104;28;20055;-67
2023/12/11 02:40:22;;;;;;;5.72;2.40;;;;;;;;;;5058726;28;20020;-69
2023/12/11 02:42:48;;;;;;;3.42;1.77;;;;;;;;;;5063472;28;20025;-68
2023/12/11 02:45:15;;;;;;;5.30;1.80;;;;;;;;;;5071136;28;20795;-68
2023/12/11 02:47:42;;;;;;;2.22;1.88;;;;;;;;;;5065045;28;20025;-68
2023/12/11 02:50:08;;;;;;;2.95;2.13;;;;;;;;;;5062278;28;20106;-69
2023/12/11 02:52:34;;;;;;;7.68;2.03;;;;;;;;;;5060188;28;20034;-69
2023/12/11 02:55:01;;;;;;;6.05;2.20;;;;;;;;;;5060325;28;20112;-68
2023/12/11 02:57:27;;;;;;;4.45;2.85;;;;;;;;;;5065482;28;20020;-68
2023/12/11 02:59:53;;;;;;;4.03;1.83;;;;;;;;;;5076644;28;20068;-68
2023/12/11 03:02:19;;;;;;;5.38;1.92;;;;;;;;;;5062486;28;20024;-68
2023/12/11 03:04:46;;;;;;;3.58;1.80;;;;;;;;;;5060418;28;20074;-67
2023/12/11 03:07:13;;;;;;;5.40;1.92;;;;;;;;;;5064167;28;20027;-67
2023/12/11 03:09:40;;;;;;;2.78;1.77;;;;;;;;;;5065257;28;20087;-67
2023/12/11 03:12:06;;;;;;;9.35;2.10;;;;;;;;;;5051921;28;20033;-67
2023/12/11 03:14:32;;;;;;;4.97;1.77;;;;;;;;;;5060673;28;20513;-67
2023/12/11 03:16:58;;;;;;;2.40;1.60;;;;;;;;;;5063133;28;20489;-69
2023/12/11 03:19:25;;;;;;;3.08;1.88;;;;;;;;;;5058298;28;20039;-67
2023/12/11 03:21:51;;;;;;;2.22;1.80;;;;;;;;;;5059706;28;20060;-68
2023/12/11 03:24:18;;;;;;;1.48;1.45;;;;;;;;;;5060704;28;20032;-68
2023/12/11 03:26:44;;;;;;;4.25;1.50;;;;;;;;;;5055121;28;20039;-68
2023/12/11 03:29:10;;;;;;;2.15;1.50;;;;;;;;;;5065317;28;20564;-68
2023/12/11 03:31:37;;;;;;;2.78;1.88;;;;;;;;;;5057755;28;20368;-68
2023/12/11 03:34:03;;;;;;;1.92;1.50;;;;;;;;;;5063141;28;20037;-67
2023/12/11 03:36:29;;;;;;;1.88;1.50;;;;;;;;;;5062430;28;20025;-68
2023/12/11 03:38:55;;;;;;;2.88;1.73;;;;;;;;;;5059230;28;20059;-67
2023/12/11 03:41:21;;;;;;;1.80;1.38;;;;;;;;;;5056506;28;20029;-67
2023/12/11 03:43:47;;;;;;;1.50;1.40;;;;;;;;;;5058832;28;20526;-67
2023/12/11 03:46:14;;;;;;;7.47;1.73;;;;;;;;;;5066247;28;20328;-67
2023/12/11 03:48:40;;;;;;;1.52;1.42;;;;;;;;;;5059885;28;20465;-67
2023/12/11 03:51:06;;;;;;;2.00;1.58;;;;;;;;;;5050904;28;20032;-68
2023/12/11 03:53:32;;;;;;;5.57;1.50;;;;;;;;;;5053533;28;20191;-67
2023/12/11 03:55:58;;;;;;;5.05;1.80;;;;;;;;;;5063978;28;20028;-67
2023/12/11 03:58:25;;;;;;;1.48;1.45;;;;;;;;;;5064052;28;20028;-67
2023/12/11 04:00:51;;;;;;;2.90;1.42;;;;;;;;;;5058713;28;20097;-67
2023/12/11 04:03:17;;;;;;;6.72;1.60;;;;;;;;;;5064407;28;20025;-67
2023/12/11 04:05:43;;;;;;;1.52;1.42;;;;;;;;;;5061776;28;20020;-68
2023/12/11 04:08:10;;;;;;;1.23;1.23;;;;;;;;;;5056019;28;20061;-67
2023/12/11 04:10:36;;;;;;;5.28;1.75;;;;;;;;;;5059958;28;20441;-67
2023/12/11 04:13:03;;;;;;;1.73;1.30;;;;;;;;;;5058971;28;20079;-67
2023/12/11 04:15:29;;;;;;;2.85;1.60;;;;;;;;;;5057088;28;20028;-68
2023/12/11 04:17:55;;;;;;;2.17;1.70;;;;;;;;;;5061026;28;20061;-68
2023/12/11 04:20:21;;;;;;;4.03;1.63;;;;;;;;;;5075877;28;20029;-67
2023/12/11 04:22:47;;;;;;;1.85;1.20;;;;;;;;;;5058203;28;20732;-67
2023/12/11 04:25:13;;;;;;;3.38;1.63;;;;;;;;;;5061133;28;20649;-68
2023/12/11 04:27:39;;;;;;;1.42;1.30;;;;;;;;;;5060063;28;20085;-68
2023/12/11 04:30:06;;;;;;;3.20;1.65;;;;;;;;;;5059944;28;20028;-70
2023/12/11 04:32:32;;;;;;;8.00;1.83;;;;;;;;;;5056644;28;20476;-68
2023/12/11 04:34:58;;;;;;;2.08;1.40;;;;;;;;;;5056594;28;20029;-67
2023/12/11 04:37:24;;;;;;;1.67;1.58;;;;;;;;;;5054625;28;20143;-68
2023/12/11 04:39:50;;;;;;;3.42;1.55;;;;;;;;;;5062041;28;20028;-67
2023/12/11 04:42:16;;;;;;;1.95;1.40;;;;;;;;;;5059218;28;20062;-68
2023/12/11 04:44:43;;;;;;;1.88;1.70;;;;;;;;;;5057504;28;20166;-68
2023/12/11 04:47:09;;;;;;;4.57;1.45;;;;;;;;;;5060385;28;20024;-68
2023/12/11 04:49:35;;;;;;;3.78;1.67;;;;;;;;;;5061443;28;20533;-68
2023/12/11 04:52:02;;;;;;;3.00;1.73;;;;;;;;;;5060801;28;20039;-67
2023/12/11 04:54:28;;;;;;;2.78;1.70;;;;;;;;;;5060208;28;20024;-68
2023/12/11 04:56:54;;;;;;;4.05;1.42;;;;;;;;;;5066156;28;20044;-67
2023/12/11 04:59:21;;;;;;;2.80;1.58;;;;;;;;;;5060648;28;20476;-68
2023/12/11 05:01:47;;;;;;;5.85;1.83;;;;;;;;;;5065163;28;20088;-67
2023/12/11 05:04:13;;;;;;;1.38;1.27;;;;;;;;;;5066580;28;20046;-68
2023/12/11 05:06:39;;;;;;;2.50;1.73;;;;;;;;;;5062911;28;20039;-67
2023/12/11 05:09:05;;;;;;;5.75;1.50;;;;;;;;;;5081618;28;20028;-68
2023/12/11 05:11:31;;;;;;;3.08;1.40;;;;;;;;;;5069453;28;20024;-68
2023/12/11 05:13:57;;;;;;;2.92;1.52;;;;;;;;;;5063690;28;20478;-68
2023/12/11 05:16:24;;;;;;;6.10;1.90;;;;;;;;;;5064602;28;20032;-67
2023/12/11 05:18:50;;;;;;;8.70;1.88;;;;;;;;;;5066030;28;20396;-68
2023/12/11 05:21:16;;;;;;;4.63;1.73;;;;;;;;;;5067574;28;20032;-67
2023/12/11 05:23:42;;;;;;;4.65;1.75;;;;;;;;;;5062476;28;20768;-68
2023/12/11 05:26:08;;;;;;;1.92;1.83;;;;;;;;;;5078409;28;20412;-67
2023/12/11 05:28:34;;;;;;;1.40;1.30;;;;;;;;;;5062504;28;20383;-67
2023/12/11 05:31:01;;;;;;;4.07;2.25;;;;;;;;;;5058602;28;20484;-67
2023/12/11 05:33:27;;;;;;;1.38;1.30;;;;;;;;;;5065768;28;20021;-68
2023/12/11 05:35:53;;;;;;;2.25;2.10;;;;;;;;;;5066168;28;20043;-67
2023/12/11 05:38:19;;;;;;;3.20;1.52;;;;;;;;;;5076614;28;20122;-68
2023/12/11 05:40:45;;;;;;;2.88;1.38;;;;;;;;;;5063758;28;20311;-68
2023/12/11 05:43:12;;;;;;;7.55;1.80;;;;;;;;;;5063587;28;20397;-68
2023/12/11 05:45:38;;;;;;;4.30;2.42;;;;;;;;;;5058102;28;20051;-67
2023/12/11 05:48:04;;;;;;;1.65;1.40;;;;;;;;;;5061169;28;20641;-68
2023/12/11 05:50:30;;;;;;;2.47;1.38;;;;;;;;;;5067231;28;20036;-67
2023/12/11 05:52:56;;;;;;;1.80;1.55;;;;;;;;;;5062474;28;20037;-67
2023/12/11 05:55:23;;;;;;;1.35;1.25;;;;;;;;;;5060501;28;20036;-68
2023/12/11 05:57:49;;;;;;;3.15;1.40;;;;;;;;;;5063904;28;20372;-67
2023/12/11 06:00:15;;;;;;;5.03;1.40;;;;;;;;;;5057834;28;20494;-68
2023/12/11 06:02:41;;;;;;;4.57;1.65;;;;;;;;;;5063413;28;20276;-68
2023/12/11 06:05:11;;;;;;;2.65;2.45;;;;;;;;;;5062384;28;20033;-68
2023/12/11 06:07:38;;;;;;;5.03;1.70;;;;;;;;;;5064128;28;20015;-68
2023/12/11 06:10:05;;;;;;;3.40;1.75;;;;;;;;;;5064423;28;20080;-68
2023/12/11 06:12:32;;;;;;;1.25;1.20;;;;;;;;;;5066396;28;20048;-67
2023/12/11 06:14:58;;;;;;;1.30;1.30;;;;;;;;;;5056134;28;20496;-68
2023/12/11 06:17:25;;;;;;;1.55;1.33;;;;;;;;;;5048040;28;20115;-67
2023/12/11 06:19:51;;;;;;;1.60;1.50;;;;;;;;;;5054788;28;20405;-68
2023/12/11 06:22:17;;;;;;;1.70;1.60;;;;;;;;;;5060333;28;20115;-68
2023/12/11 06:24:43;;;;;;;2.75;1.40;;;;;;;;;;5063372;28;20028;-68
2023/12/11 06:27:10;;;;;;;1.55;1.48;;;;;;;;;;5060849;28;20404;-68
2023/12/11 06:29:36;;;;;;;1.10;1.10;;;;;;;;;;5058974;28;20029;-68
2023/12/11 06:32:03;;;;;;;2.33;1.73;;;;;;;;;;5049671;28;20028;-68
2023/12/11 06:34:30;;;;;;;3.80;1.90;;;;;;;;;;5060899;28;20190;-68
2023/12/11 06:36:56;;;;;;;2.05;1.73;;;;;;;;;;5060591;28;20036;-68
2023/12/11 06:39:23;;;;;;;6.97;1.98;;;;;;;;;;5058352;28;20024;-68
2023/12/11 06:41:51;;;;;;;3.40;1.73;;;;;;;;;;5062608;28;20028;-69
2023/12/11 06:44:21;;;;;;;7.38;1.52;;;;;;;;;;5055991;28;20103;-68
2023/12/11 06:46:47;;;;;;;2.90;1.55;;;;;;;;;;5064341;28;20063;-67
2023/12/11 06:49:13;;;;;;;3.03;1.50;;;;;;;;;;5054047;28;20021;-68
2023/12/11 06:51:40;;;;;;;7.30;1.80;;;;;;;;;;5059941;28;20025;-68
2023/12/11 06:54:07;;;;;;;4.07;1.80;;;;;;;;;;5055430;28;20029;-68
2023/12/11 06:56:33;;;;;;;2.50;1.48;;;;;;;;;;5050011;28;20708;-67
2023/12/11 06:59:00;;;;;;;2.00;1.77;;;;;;;;;;5061316;28;20032;-68
2023/12/11 07:01:28;;;;;;;2.40;1.60;;;;;;;;;;5061895;28;20028;-68
2023/12/11 07:03:54;;;;;;;1.35;1.25;;;;;;;;;;5066752;28;20463;-68
2023/12/11 07:06:20;;;;;;;3.28;1.27;;;;;;;;;;5068013;28;20025;-68
2023/12/11 07:08:46;;;;;;;3.65;1.42;;;;;;;;;;5062317;28;20020;-68
2023/12/11 07:11:13;;;;;;;2.53;1.50;;;;;;;;;;5067109;28;20029;-68
2023/12/11 07:13:42;;;;;;;1.50;1.40;;;;;;;;;;5061372;28;20024;-68
2023/12/11 07:16:08;;;;;;;3.42;1.80;;;;;;;;;;5068504;28;20028;-68
2023/12/11 07:18:34;;;;;;;3.75;3.22;;;;;;;;;;5058728;28;20025;-68
2023/12/11 07:21:01;;;;;;;1.38;1.35;;;;;;;;;;5063052;28;20051;-68
2023/12/11 07:23:27;;;;;;;2.67;1.70;;;;;;;;;;5057130;28;20033;-68
2023/12/11 07:25:53;;;;;;;1.67;1.58;;;;;;;;;;5061666;28;20078;-69
2023/12/11 07:28:19;;;;;;;1.80;1.70;;;;;;;;;;5062541;28;20020;-68
2023/12/11 07:30:45;;;;;;;4.22;1.80;;;;;;;;;;5059007;28;20059;-68
2023/12/11 07:33:12;;;;;;;2.20;1.50;;;;;;;;;;5061092;28;20027;-68
2023/12/11 07:35:38;;;;;;;1.58;1.25;;;;;;;;;;5059758;28;20066;-68
2023/12/11 07:38:06;;;;;;;3.90;1.90;;;;;;;;;;5062697;28;20052;-69
2023/12/11 07:40:32;;;;;;;4.32;1.80;;;;;;;;;;5059633;28;20021;-68
2023/12/11 07:42:59;;;;;;;4.70;1.52;;;;;;;;;;5057307;28;20031;-68
2023/12/11 07:45:25;;;;;;;3.00;1.50;;;;;;;;;;5056073;28;20631;-68
2023/12/11 07:47:51;;;;;;;3.75;1.90;;;;;;;;;;5057706;28;20033;-68
2023/12/11 07:50:18;;;;;;;1.85;1.48;;;;;;;;;;5060657;28;20032;-68
2023/12/11 07:52:44;;;;;;;2.63;1.55;;;;;;;;;;5059177;28;20267;-68
2023/12/11 07:55:11;;;;;;;4.38;1.85;;;;;;;;;;5061920;28;20029;-68
2023/12/11 07:57:39;;;;;;;1.20;1.20;;;;;;;;;;5062511;28;20028;-69
2023/12/11 08:00:06;;;;;;;3.50;1.88;;;;;;;;;;5056175;28;20024;-69
2023/12/11 08:02:33;;;;;;;1.83;1.42;;;;;;;;;;5060359;28;20103;-68
2023/12/11 08:04:59;;;;;;;5.80;1.75;;;;;;;;;;5047737;28;20846;-69
2023/12/11 08:07:25;;;;;;;3.10;1.65;;;;;;;;;;5060572;28;20485;-69
2023/12/11 08:09:52;;;;;;;3.60;1.48;;;;;;;;;;5058991;28;20029;-68
2023/12/11 08:12:18;;;;;;;2.65;1.60;;;;;;;;;;5049517;28;20029;-68
2023/12/11 08:14:44;;;;;;;4.93;1.88;;;;;;;;;;5064890;28;20108;-69
2023/12/11 08:17:11;;;;;;;4.05;1.65;;;;;;;;;;5066175;28;20024;-70
2023/12/11 08:19:37;;;;;;;2.25;1.45;;;;;;;;;;5055890;28;20033;-69
2023/12/11 08:22:04;;;;;;;1.92;1.70;;;;;;;;;;5058423;28;20066;-69
2023/12/11 08:24:30;;;;;;;2.10;2.00;;;;;;;;;;5057149;28;20021;-68
2023/12/11 08:26:57;;;;;;;3.15;1.77;;;;;;;;;;5063585;28;20029;-68
2023/12/11 08:29:23;;;;;;;2.20;2.00;;;;;;;;;;5062267;28;20097;-69
2023/12/11 08:31:49;;;;;;;2.20;1.98;;;;;;;;;;5072041;28;20051;-68
2023/12/11 08:34:16;;;;;;;4.70;1.63;;;;;;;;;;5057865;28;20056;-69
2023/12/11 08:36:43;;;;;;;4.13;1.52;;;;;;;;;;5075768;28;20036;-69
2023/12/11 08:39:10;;;;;;;1.98;1.55;;;;;;;;;;5055627;28;20022;-68
2023/12/11 08:41:36;;;;;;;2.15;1.88;;;;;;;;;;5056931;28;20400;-68
2023/12/11 08:44:03;;;;;;;3.50;1.77;;;;;;;;;;5051371;28;20473;-68
2023/12/11 08:46:31;;;;;;;2.75;1.60;;;;;;;;;;5058390;28;20039;-69
2023/12/11 08:48:58;;;;;;;3.40;1.80;;;;;;;;;;5051147;28;20054;-68
2023/12/11 08:51:24;;;;;;;4.43;2.15;;;;;;;;;;5062821;28;20028;-70
2023/12/11 08:53:50;;;;;;;5.47;1.75;;;;;;;;;;5070367;28;20143;-68
2023/12/11 08:56:19;;;;;;;3.35;1.50;;;;;;;;;;5055952;28;20468;-68
2023/12/11 08:58:48;;;;;;;2.60;1.80;;;;;;;;;;5061054;28;20415;-69
2023/12/11 09:01:14;;;;;;;2.30;1.73;;;;;;;;;;5056115;28;20028;-69
2023/12/11 09:03:42;;;;;;;2.30;1.60;;;;;;;;;;5059632;28;20389;-69
2023/12/11 09:06:09;;;;;;;5.05;2.28;;;;;;;;;;5067220;28;20475;-70
2023/12/11 09:08:35;;;;;;;1.73;1.63;;;;;;;;;;5059022;28;20594;-69
2023/12/11 09:11:01;;;;;;;3.15;1.70;;;;;;;;;;5063560;28;20135;-69
2023/12/11 09:13:28;;;;;;;4.22;1.80;;;;;;;;;;5057654;28;20032;-69
2023/12/11 09:15:54;;;;;;;1.95;1.60;;;;;;;;;;5068522;28;20037;-69
2023/12/11 09:18:23;;;;;;;2.30;1.70;;;;;;;;;;5059247;28;20514;-69
2023/12/11 09:20:50;;;;;;;1.50;1.40;;;;;;;;;;5063143;28;20078;-69
2023/12/11 09:23:16;;;;;;;6.38;1.88;;;;;;;;;;5059231;28;20032;-70
2023/12/11 09:25:42;;;;;;;7.65;1.60;;;;;;;;;;5066041;28;20066;-69
2023/12/11 09:28:09;;;;;;;3.72;2.13;;;;;;;;;;5062428;28;20032;-68
2023/12/11 09:30:35;;;;;;;3.75;2.08;;;;;;;;;;5060445;28;20033;-69
2023/12/11 09:33:01;;;;;;;2.92;1.90;;;;;;;;;;5061915;28;20033;-70
2023/12/11 09:35:28;;;;;;;3.17;1.85;;;;;;;;;;5074125;28;20029;-69
2023/12/11 09:37:54;;;;;;;6.15;2.45;;;;;;;;;;5054223;28;20036;-69
2023/12/11 09:40:20;;;;;;;5.82;1.80;;;;;;;;;;5061621;28;20025;-69
2023/12/11 09:42:51;;;;;;;2.92;1.70;;;;;;;;;;5058455;28;20017;-69
2023/12/11 09:45:19;;;;;;;2.97;1.73;;;;;;;;;;5073336;28;20070;-70
2023/12/11 09:47:55;;;;;;;5.68;2.10;;;;;;;;;;5061008;28;20029;-69
2023/12/11 09:50:21;;;;;;;3.60;1.60;;;;;;;;;;5062929;28;20051;-69
2023/12/11 09:52:49;;;;;;;3.38;1.98;;;;;;;;;;5065243;28;20388;-70
2023/12/11 09:55:16;;;;;;;3.50;1.90;;;;;;;;;;5061374;28;20484;-70
2023/12/11 09:57:42;;;;;;;3.90;2.03;;;;;;;;;;5077950;28;20480;-69
2023/12/11 10:00:11;;;;;;;2.22;1.85;;;;;;;;;;5063902;28;20052;-69
2023/12/11 10:02:38;;;;;;;8.70;2.17;;;;;;;;;;5062329;28;20568;-69
2023/12/11 10:05:09;;;;;;;7.68;3.00;;;;;;;;;;5061076;28;20139;-70
2023/12/11 10:07:38;;;;;;;2.50;1.80;;;;;;;;;;5059390;28;20048;-70
2023/12/11 10:10:23;;;;;;;7.38;1.67;;;;;;;;;;5072416;28;20029;-70
2023/12/11 10:12:50;;;;;;;4.13;2.08;;;;;;;;;;5056409;28;20178;-69
2023/12/11 10:15:20;;;;;;;3.03;1.85;;;;;;;;;;5065499;28;20532;-70
2023/12/11 10:17:46;;;;;;;1.63;1.52;;;;;;;;;;5064384;28;20491;-69
2023/12/11 10:20:16;;;;;;;3.97;2.13;;;;;;;;;;5066548;28;20567;-70
2023/12/11 10:22:43;;;;;;;4.32;1.58;;;;;;;;;;5077654;28;20025;-70
2023/12/11 10:25:09;;;;;;;7.20;2.10;;;;;;;;;;5060377;28;20421;-70
2023/12/11 10:27:35;;;;;;;7.90;2.00;;;;;;;;;;5063747;28;20031;-70
2023/12/11 10:30:12;;;;;;;2.13;1.60;;;;;;;;;;5063622;28;20411;-70
2023/12/11 10:32:38;;;;;;;1.70;1.60;;;;;;;;;;5057075;28;20030;-69
2023/12/11 10:35:05;;;;;;;3.75;1.90;;;;;;;;;;5063179;28;20609;-69
2023/12/11 10:37:36;;;;;;;3.70;2.00;;;;;;;;;;5059985;28;20481;-69
2023/12/11 10:40:03;;;;;;;4.85;2.15;;;;;;;;;;5059485;28;20028;-70
2023/12/11 10:42:29;;;;;;;5.78;1.90;;;;;;;;;;5058353;28;20408;-70
2023/12/11 10:44:56;;;;;;;4.55;1.80;;;;;;;;;;5053869;28;20065;-70
2023/12/11 10:47:22;;;;;;;2.03;1.73;;;;;;;;;;5061252;28;20036;-70
2023/12/11 10:49:49;;;;;;;3.22;1.70;;;;;;;;;;5063391;28;20039;-70
2023/12/11 10:52:16;;;;;;;1.85;1.60;;;;;;;;;;5054382;28;20032;-69
2023/12/11 10:54:45;;;;;;;5.00;1.60;;;;;;;;;;5076610;28;20495;-70
2023/12/11 10:57:16;;;;;;;5.32;2.80;;;;;;;;;;5061642;28;20970;-70
2023/12/11 10:59:43;;;;;;;4.88;1.92;;;;;;;;;;5063205;28;20052;-70
2023/12/11 11:02:13;;;;;;;4.35;1.90;;;;;;;;;;5058122;28;20401;-70
2023/12/11 11:04:42;;;;;;;8.07;2.83;;;;;;;;;;5058178;28;20017;-70
2023/12/11 11:07:19;;;;;;;3.92;2.17;;;;;;;;;;5059941;28;20447;-69
2023/12/11 11:09:51;;;;;;;4.25;2.10;;;;;;;;;;5076922;28;20104;-69
2023/12/11 11:12:31;;;;;;;3.28;1.77;;;;;;;;;;5062872;28;20066;-69
2023/12/11 11:14:57;;;;;;;3.17;1.80;;;;;;;;;;5074843;28;20844;-69
2023/12/11 11:17:23;;;;;;;2.30;2.10;;;;;;;;;;5062822;28;20461;-69
2023/12/11 11:20:13;;;;;;;3.60;1.75;;;;;;;;;;5063451;28;20035;-69
2023/12/11 11:22:40;;;;;;;3.72;1.60;;;;;;;;;;5060020;28;20060;-69
2023/12/11 11:25:36;;;;;;;3.58;2.30;;;;;;;;;;5058257;28;20021;-69
2023/12/11 11:28:03;;;;;;;5.05;1.90;;;;;;;;;;5064756;28;20070;-70
2023/12/11 11:30:42;;;;;;;5.55;2.83;;;;;;;;;;5064262;28;20494;-69
2023/12/11 11:33:08;;;;;;;6.13;2.40;;;;;;;;;;5058728;28;20037;-69
2023/12/11 11:35:44;;;;;;;3.78;1.77;;;;;;;;;;5062526;28;20064;-69
2023/12/11 11:38:10;;;;;;;;;;;;;;;;;;5060566;28;20628;-69
2023/12/11 11:40:36;;;;;;;6.18;2.55;;;;;;;;;;5057710;28;19955;-70
2023/12/11 11:43:03;;;;;;;3.50;1.88;;;;;;;;;;5061684;28;20090;-70
2023/12/11 11:45:30;;;;;;;2.55;1.75;;;;;;;;;;5060076;28;20036;-70
2023/12/11 11:47:56;;;;;;;3.78;1.80;;;;;;;;;;5070738;28;20079;-70
2023/12/11 11:50:22;;;;;;;2.92;1.70;;;;;;;;;;5049089;28;20031;-70
2023/12/11 11:53:09;;;;;;;5.32;1.98;;;;;;;;;;5055079;28;20116;-70
2023/12/11 11:55:38;;;;;;;1.77;1.60;;;;;;;;;;5055170;28;20507;-70
2023/12/11 11:58:13;;;;;;;8.38;2.17;;;;;;;;;;5062031;28;20036;-70
2023/12/11 12:00:40;;;;;;;2.17;1.77;;;;;;;;;;5061770;28;20040;-70
2023/12/11 12:03:10;;;;;;;3.53;2.10;;;;;;;;;;5057298;28;20036;-70
2023/12/11 12:05:37;;;;;;;4.90;2.08;;;;;;;;;;5057058;28;20017;-71
2023/12/11 12:08:09;;;;;;;5.47;2.20;;;;;;;;;;5058773;28;20047;-71
2023/12/11 12:10:35;;;;;;;3.95;2.10;;;;;;;;;;5057005;28;20532;-70
2023/12/11 12:13:02;;;;;;;4.18;2.33;;;;;;;;;;5058818;28;20029;-71
2023/12/11 12:15:28;;;;;;;5.20;1.90;;;;;;;;;;5053315;28;20488;-71
2023/12/11 12:18:06;;;;;;;5.80;2.35;;;;;;;;;;5065266;28;20523;-71
2023/12/11 12:20:33;;;;;;;4.40;2.00;;;;;;;;;;5078628;28;20155;-71
2023/12/11 12:23:03;;;;;;;2.65;2.33;;;;;;;;;;5062781;28;20032;-71
2023/12/11 12:25:29;;;;;;;3.78;2.05;;;;;;;;;;5082419;28;20020;-71
2023/12/11 12:27:57;;;;;;;7.10;1.90;;;;;;;;;;5058532;28;20024;-71
2023/12/11 12:30:24;;;;;;;7.38;2.13;;;;;;;;;;5082371;28;20051;-71
2023/12/11 12:32:52;;;;;;;4.85;2.40;;;;;;;;;;5063072;28;20025;-71
2023/12/11 12:35:21;;;;;;;4.75;2.72;;;;;;;;;;5063915;28;20024;-71
2023/12/11 12:37:49;;;;;;;3.97;2.03;;;;;;;;;;5066782;28;20408;-71
2023/12/11 12:40:18;;;;;;;4.05;1.95;;;;;;;;;;5064530;28;20052;-71
2023/12/11 12:42:45;;;;;;;5.40;1.92;;;;;;;;;;5057875;28;20032;-70
2023/12/11 12:45:12;;;;;;;5.40;2.30;;;;;;;;;;5061420;28;20071;-71
2023/12/11 12:47:47;;;;;;;6.30;2.33;;;;;;;;;;5080269;28;20025;-71
2023/12/11 12:50:20;;;;;;;4.80;2.13;;;;;;;;;;5064358;28;20086;-70
2023/12/11 12:52:46;;;;;;;2.53;1.80;;;;;;;;;;5078132;28;20033;-70
2023/12/11 12:55:14;;;;;;;7.38;1.90;;;;;;;;;;5056918;28;20118;-71
2023/12/11 12:57:44;;;;;;;5.75;1.83;;;;;;;;;;5064612;28;20020;-70
2023/12/11 13:00:18;;;;;;;6.63;2.20;;;;;;;;;;5058490;28;20038;-70
2023/12/11 13:02:50;;;;;;;5.82;2.03;;;;;;;;;;5062601;28;20369;-70
2023/12/11 13:05:17;;;;;;;3.25;2.03;;;;;;;;;;5061791;28;20009;-70
2023/12/11 13:07:57;;;;;;;4.32;2.33;;;;;;;;;;5059878;28;20051;-70
2023/12/11 13:10:24;;;;;;;6.97;1.90;;;;;;;;;;5076164;28;20028;-71
2023/12/11 13:12:50;;;;;;;7.55;2.30;;;;;;;;;;5059664;28;20056;-70
2023/12/11 13:15:16;;;;;;;4.40;2.10;;;;;;;;;;5074489;28;20502;-71
2023/12/11 13:17:50;;;;;;;3.70;2.42;;;;;;;;;;5065851;28;20021;-70
2023/12/11 13:20:16;;;;;;;4.88;2.60;;;;;;;;;;5063253;28;20035;-70
2023/12/11 13:22:42;;;;;;;4.13;1.65;;;;;;;;;;5068295;28;20454;-70
2023/12/11 13:25:09;;;;;;;9.45;2.20;;;;;;;;;;5062620;28;20025;-70
2023/12/11 13:27:35;;;;;;;4.40;1.90;;;;;;;;;;5069618;28;20033;-70
2023/12/11 13:30:03;;;;;;;3.72;2.63;;;;;;;;;;5069806;28;20100;-70
2023/12/11 13:32:32;;;;;;;4.47;2.00;;;;;;;;;;5065866;28;20504;-71
2023/12/11 13:34:58;;;;;;;6.55;2.20;;;;;;;;;;5062909;28;20032;-71
2023/12/11 13:37:25;;;;;;;2.35;1.55;;;;;;;;;;5065650;28;20115;-71
2023/12/11 13:39:51;;;;;;;5.47;2.20;;;;;;;;;;5062843;28;20044;-71
2023/12/11 13:42:18;;;;;;;5.35;1.73;;;;;;;;;;5064148;28;20028;-71
2023/12/11 13:44:46;;;;;;;4.95;1.70;;;;;;;;;;5065920;28;20071;-71
2023/12/11 13:47:12;;;;;;;3.22;1.63;;;;;;;;;;5067757;28;20135;-71
2023/12/11 13:49:39;;;;;;;4.07;2.38;;;;;;;;;;5066208;28;20026;-70
2023/12/11 13:52:06;;;;;;;4.13;2.30;;;;;;;;;;5066307;28;20028;-72
2023/12/11 13:54:32;;;;;;;7.20;2.70;;;;;;;;;;5071116;28;20036;-71
2023/12/11 13:56:58;;;;;;;2.78;1.70;;;;;;;;;;5056544;28;20114;-71
2023/12/11 13:59:28;;;;;;;4.93;2.00;;;;;;;;;;5063001;28;20056;-70
2023/12/11 14:01:57;;;;;;;3.83;2.40;;;;;;;;;;5059454;28;20087;-70
2023/12/11 14:04:24;;;;;;;7.05;3.55;;;;;;;;;;5065187;28;20714;-71
2023/12/11 14:06:50;;;;;;;3.60;2.28;;;;;;;;;;5059166;28;20025;-70
2023/12/11 14:09:16;;;;;;;9.90;3.35;;;;;;;;;;5067515;28;20469;-71
2023/12/11 14:11:43;;;;;;;8.85;4.78;;;;;;;;;;5076476;28;20028;-71
2023/12/11 14:14:18;;;;;;;7.63;3.15;;;;;;;;;;5065232;28;20068;-71
2023/12/11 14:16:44;;;;;;;11.13;6.15;;;;;;;;;;5059098;28;20092;-71
2023/12/11 14:19:10;;;;;;;14.45;8.68;;;;;;;;;;5061052;28;20033;-71
2023/12/11 14:21:36;;;;;;;15.88;4.55;;;;;;;;;;5059489;28;20051;-71
2023/12/11 14:24:04;;;;;;;8.88;4.10;;;;;;;;;;5062095;28;20102;-72
2023/12/11 14:26:30;;;;;;;9.57;4.20;;;;;;;;;;5061234;28;20107;-70
2023/12/11 14:28:56;;;;;;;10.50;3.38;;;;;;;;;;5061897;28;20028;-70
2023/12/11 14:31:23;;;;;;;8.90;2.92;;;;;;;;;;5072385;28;20476;-70
2023/12/11 14:33:50;;;;;;;5.70;2.55;;;;;;;;;;5068729;28;20422;-71
2023/12/11 14:36:16;;;;;;;8.93;5.47;;;;;;;;;;5064036;28;20649;-71
2023/12/11 14:38:42;;;;;;;6.53;3.83;;;;;;;;;;5056779;28;20063;-71
2023/12/11 14:41:10;;;;;;;5.22;3.60;;;;;;;;;;5069628;28;20493;-71
2023/12/11 14:43:36;;;;;;;7.40;2.67;;;;;;;;;;5061938;28;20031;-71